Time;durP1;ratioP1;P1;durP2;ratioP2;P2;SDS_P1;SDS_P2;PMS_P1;PMS_P2;Temp;Humidity;BMP_temperature;BMP_pressure;BME280_temperature;BME280_humidity;BME280_pressure;Samples;Min_cycle;Max_cycle;Signal;HPM_P1;HPM_P2
2022/04/27 00:05:03;;;;;;;4.57;3.93;;;10.80;91.20;;;11.46;60.51;98981.31;4904437;28;124312;-74
2022/04/27 00:11:11;;;;;;;4.30;3.87;;;9.70;91.20;;;11.40;60.36;98985.34;4904749;28;115273;-75
2022/04/27 00:24:44;;;;;;;5.30;4.80;;;9.40;91.30;;;11.28;60.71;98980.34;4904169;28;115474;-78
2022/04/27 02:21:58;;;;;;;12.27;8.23;;;9.70;92.50;;;11.25;61.49;99016.94;4960364;28;126163;-78
2022/04/27 02:54:09;;;;;;;11.53;8.70;;;10.70;92.80;;;11.41;62.25;99014.66;4962939;28;125128;-77
2022/04/27 03:00:18;;;;;;;9.03;7.80;;;9.40;92.80;;;11.42;62.47;99021.84;4963386;28;115190;-74
2022/04/27 03:06:27;;;;;;;10.10;8.00;;;9.40;92.90;;;11.48;62.31;99031.63;4963363;28;125100;-77
2022/04/27 03:12:36;;;;;;;9.77;8.00;;;10.60;92.90;;;11.49;62.42;99036.03;4963435;28;115200;-74
2022/04/27 03:18:46;;;;;;;8.57;7.23;;;12.80;93.90;;;11.48;62.19;99043.53;4962925;28;125072;-77
2022/04/27 04:07:15;;;;;;;6.50;5.50;;;12.70;94.00;;;11.58;62.49;99072.06;4923553;28;124773;-76
2022/04/27 04:13:27;;;;;;;7.87;6.77;;;10.10;93.00;;;11.65;62.88;99072.47;4924210;28;114927;-78
2022/04/27 04:16:15;;;;;;;7.30;6.20;;;11.00;93.50;;;11.68;62.38;99069.06;4923101;28;124830;-76
2022/04/27 04:31:08;;;;;;;8.50;6.60;;;11.10;93.60;;;11.88;62.87;99085.22;4961867;28;124787;-87
2022/04/27 04:34:12;;;;;;;7.03;5.77;;;11.20;93.90;;;11.97;63.09;99087.25;4961452;28;113680;-88
2022/04/27 04:40:21;;;;;;;9.93;7.67;;;11.20;93.80;;;12.03;62.52;99092.31;4961612;28;125094;-80
2022/04/27 04:46:30;;;;;;;8.33;6.80;;;11.30;93.70;;;12.03;62.66;99113.66;4962015;28;116632;-80
2022/04/27 04:52:39;;;;;;;9.43;6.63;;;10.10;93.10;;;12.00;62.50;99117.06;4961149;28;125095;-81
2022/04/27 04:58:48;;;;;;;9.23;7.50;;;11.40;93.60;;;11.97;62.57;99126.81;4961345;28;115241;-90
2022/04/27 05:04:56;;;;;;;9.80;7.67;;;11.30;93.50;;;11.97;62.54;99131.56;4960959;28;125181;-90
2022/04/27 05:11:06;;;;;;;12.60;9.77;;;9.50;93.20;;;11.93;62.65;99131.38;4959973;28;115258;-91
2022/04/27 05:13:52;;;;;;;13.33;10.60;;;12.80;94.30;;;11.96;62.59;99135.47;4953263;28;114654;-91
2022/04/27 05:20:01;;;;;;;13.07;8.87;;;11.40;93.80;;;12.05;62.50;99148.22;4960727;28;124941;-86
2022/04/27 05:33:23;;;;;;;8.80;7.47;;;10.00;93.00;;;12.07;62.50;99150.69;4926840;28;124257;-90
2022/04/27 05:35:52;;;;;;;9.00;7.90;;;11.40;94.00;;;12.09;62.52;99156.72;4955324;28;113628;-88
2022/04/27 05:38:56;;;;;;;11.17;9.17;;;11.40;93.80;;;12.14;62.43;99159.38;4955001;28;114109;-91
2022/04/27 05:41:43;;;;;;;13.27;9.60;;;11.60;93.60;;;12.15;62.13;99161.84;4938483;28;123710;-91
2022/04/27 05:44:48;;;;;;;12.43;9.07;;;11.60;93.60;;;12.12;62.72;99158.88;4954869;28;123576;-89
2022/04/27 05:47:14;;;;;;;10.07;8.07;;;11.60;93.60;;;12.15;62.38;99172.09;4951769;28;114025;-91
2022/04/27 05:50:19;;;;;;;10.70;8.70;;;11.60;93.60;;;12.17;62.51;99172.63;4942104;28;111939;-89
2022/04/27 05:52:58;;;;;;;9.80;8.40;;;11.60;93.60;;;12.19;62.21;99184.19;4941945;28;124955;-88
2022/04/27 05:59:08;;;;;;;9.37;7.37;;;11.60;93.50;;;12.20;62.35;99185.00;4948516;28;114657;-92
2022/04/27 06:05:16;;;;;;;11.53;9.47;;;11.60;93.40;;;12.24;62.33;99184.06;4957176;28;124190;-90
2022/04/27 06:08:04;;;;;;;13.60;11.27;;;11.70;93.50;;;12.21;62.26;99189.41;4950007;28;124391;-92
2022/04/27 06:10:50;;;;;;;12.87;9.90;;;11.60;93.40;;;12.17;62.48;99194.78;4958434;28;114164;-89
2022/04/27 06:13:17;;;;;;;11.17;8.80;;;11.60;93.40;;;12.17;62.67;99197.53;4952791;28;113272;-89
2022/04/27 06:19:26;;;;;;;19.63;12.20;;;11.60;93.40;;;12.20;62.34;99202.44;4944118;28;124796;-85
2022/04/27 06:21:56;;;;;;;12.83;10.17;;;11.60;93.50;;;12.18;62.29;99201.94;4942082;28;116042;-92
2022/04/27 06:28:33;;;;;;;9.10;7.43;;;11.60;93.40;;;12.18;62.10;99201.94;4935093;28;125106;-80
2022/04/27 06:34:41;;;;;;;10.23;7.77;;;11.60;93.40;;;12.15;62.46;99202.56;4944385;28;115058;-83
2022/04/27 06:37:27;;;;;;;9.63;7.27;;;11.70;93.50;;;12.18;62.64;99210.25;4943174;28;114777;-80
2022/04/27 06:43:36;;;;;;;7.77;6.70;;;11.70;93.40;;;12.18;62.12;99214.97;4942894;28;124854;-92
2022/04/27 06:46:41;;;;;;;7.57;6.67;;;11.60;93.40;;;12.18;62.49;99217.75;4943749;28;114985;-80
2022/04/27 06:52:49;;;;;;;24.63;11.47;;;11.60;93.40;;;12.18;62.85;99226.88;4943389;28;125262;-83
2022/04/27 06:56:16;;;;;;;23.17;10.50;;;11.60;93.60;;;12.22;62.66;99227.06;4950999;28;122859;-84
2022/04/27 06:58:43;;;;;;;18.73;10.17;;;11.60;93.60;;;12.27;62.71;99230.53;4956277;28;114358;-90
2022/04/27 07:02:06;;;;;;;16.30;9.83;;;11.70;93.70;;;12.32;62.46;99244.25;4957878;28;114081;-92
2022/04/27 07:04:34;;;;;;;11.53;9.77;;;11.80;93.80;;;12.33;62.96;99239.53;4937813;28;124118;-91
2022/04/27 07:07:40;;;;;;;12.37;9.93;;;11.70;93.70;;;12.33;62.75;99247.84;4934717;28;123481;-92
2022/04/27 07:11:03;;;;;;;11.93;10.00;;;11.80;93.80;;;12.27;62.52;99252.69;4938892;28;114920;-92
2022/04/27 07:17:11;;;;;;;12.73;9.30;;;11.70;93.70;;;12.28;63.08;99254.34;4941326;28;125155;-89
2022/04/27 07:19:57;;;;;;;13.10;9.90;;;11.70;93.70;;;12.29;63.01;99263.47;4950782;28;123517;-92
2022/04/27 07:23:03;;;;;;;11.53;9.70;;;11.80;93.70;;;12.27;62.71;99260.19;4950444;28;115057;-89
2022/04/27 07:26:07;;;;;;;10.70;8.23;;;11.80;93.60;;;12.26;62.64;99273.22;4954762;28;114761;-89
2022/04/27 07:28:36;;;;;;;14.80;7.43;;;11.80;93.60;;;12.28;62.30;99279.28;4937515;28;124660;-92
2022/04/27 07:31:22;;;;;;;11.10;7.80;;;11.80;93.60;;;12.35;62.64;99276.88;4928775;28;123068;-93
2022/04/27 07:33:51;;;;;;;8.93;7.30;;;11.80;93.50;;;12.40;62.25;99273.19;4934607;28;113614;-91
2022/04/27 07:36:18;;;;;;;7.53;6.27;;;11.90;93.60;;;12.47;62.52;99275.53;4936256;28;114675;-90
2022/04/27 07:39:25;;;;;;;9.93;7.07;;;11.90;93.50;;;12.51;62.09;99273.75;4936005;28;124915;-91
2022/04/27 07:41:52;;;;;;;9.90;7.73;;;11.90;93.50;;;12.54;62.26;99270.34;4937774;28;124433;-91
2022/04/27 07:48:02;;;;;;;9.57;7.73;;;12.10;93.50;;;12.77;61.70;99272.00;4959505;28;114835;-91
2022/04/27 07:54:11;;;;;;;10.00;8.03;;;12.20;93.40;;;12.94;61.13;99289.91;4958040;28;124743;-91
2022/04/27 07:56:40;;;;;;;10.50;7.70;;;12.30;93.30;;;12.94;60.88;99282.38;4954890;28;114420;-92
2022/04/27 08:02:49;;;;;;;11.40;7.73;;;12.40;93.00;;;12.96;60.96;99301.50;4957981;28;125170;-91
2022/04/27 08:05:17;;;;;;;8.20;6.17;;;12.40;92.90;;;13.03;60.92;99293.56;4956804;28;123079;-91
2022/04/27 08:07:47;;;;;;;6.80;5.60;;;12.50;92.90;;;13.12;60.92;99299.16;4953264;28;112186;-92
2022/04/27 08:10:34;;;;;;;8.20;6.77;;;12.50;92.80;;;13.20;60.38;99296.44;4935419;28;114880;-91
2022/04/27 08:13:39;;;;;;;7.53;5.87;;;12.60;92.70;;;13.30;60.27;99302.88;4922630;28;121949;-91
2022/04/27 08:16:10;;;;;;;6.50;5.53;;;12.70;92.60;;;13.39;59.99;99306.53;4935158;28;124283;-92
2022/04/27 08:19:35;;;;;;;6.87;5.90;;;12.70;92.60;;;13.44;59.52;99306.38;4937214;28;115181;-92
2022/04/27 08:22:06;;;;;;;7.67;6.20;;;12.80;92.40;;;13.43;59.61;99305.56;4934517;28;114722;-91
2022/04/27 08:24:51;;;;;;;6.97;5.67;;;12.80;92.30;;;13.49;59.75;99314.59;4930454;28;124051;-91
2022/04/27 08:27:18;;;;;;;5.30;4.80;;;12.90;92.20;;;13.58;59.40;99307.09;4946745;28;123327;-91
2022/04/27 08:29:44;;;;;;;7.60;6.20;;;13.00;92.30;;;13.72;59.25;99318.09;4955009;28;113946;-91
2022/04/27 08:32:30;;;;;;;7.63;6.00;;;13.00;92.20;;;13.83;58.67;99315.84;4954294;28;113093;-91
2022/04/27 08:35:17;;;;;;;8.60;6.60;;;13.10;92.00;;;13.90;57.86;99319.78;4952670;28;123360;-92
2022/04/27 08:37:44;;;;;;;7.47;5.73;;;13.20;91.60;;;13.97;57.96;99319.34;4947273;28;123526;-91
2022/04/27 08:43:56;;;;;;;7.30;6.23;;;13.40;91.50;;;14.19;57.33;99320.38;4956640;28;115053;-92
2022/04/27 08:46:24;;;;;;;9.47;6.67;;;13.50;91.20;;;14.22;57.17;99317.75;4949476;28;124679;-91
2022/04/27 08:49:32;;;;;;;7.47;5.93;;;13.60;91.10;;;14.24;57.19;99306.31;4950635;28;123694;-91
2022/04/27 08:59:23;;;;;;;9.27;6.87;;;13.80;90.70;;;14.36;56.51;99320.41;4958451;28;125129;-91
2022/04/27 09:09:37;;;;;;;7.80;6.53;;;13.90;90.20;;;14.51;55.78;99327.47;4939397;28;114925;-91
2022/04/27 09:22:55;;;;;;;12.70;8.10;;;14.10;89.60;;;14.58;55.29;99328.63;4957024;28;116058;-92
2022/04/27 09:25:36;;;;;;;9.33;6.67;;;14.10;89.30;;;14.61;55.51;99332.72;4947022;28;124181;-92
2022/04/27 09:28:27;;;;;;;10.87;7.77;;;14.10;89.50;;;14.64;55.36;99342.38;4930765;28;123020;-93
2022/04/27 09:31:28;;;;;;;6.93;6.00;;;14.10;89.30;;;14.68;55.36;99329.47;4934100;28;113859;-93
2022/04/27 09:34:27;;;;;;;6.90;6.00;;;14.10;89.40;;;14.73;55.26;99329.31;4945899;28;114521;-92
2022/04/27 09:37:19;;;;;;;8.10;6.00;;;14.20;89.40;;;14.77;55.07;99336.63;4949320;28;124004;-91
2022/04/27 09:40:24;;;;;;;6.90;5.57;;;14.30;89.10;;;14.87;54.86;99331.91;4944319;28;124294;-91
2022/04/27 09:43:47;;;;;;;6.80;4.27;;;14.30;89.10;;;14.99;54.85;99338.47;4948476;28;114049;-93
2022/04/27 09:49:55;;;;;;;6.40;3.90;;;14.50;88.20;;;15.11;54.17;99334.19;4943119;28;125130;-89
2022/04/27 09:52:25;;;;;;;4.73;3.70;;;14.50;88.30;;;15.19;54.19;99336.13;4949310;28;121821;-93
2022/04/27 09:54:55;;;;;;;5.53;4.83;;;14.80;88.40;;;15.28;53.81;99333.31;4945802;28;114407;-91
2022/04/27 09:57:23;;;;;;;5.17;4.40;;;14.70;88.00;;;15.32;53.58;99329.56;4945263;28;113493;-91
2022/04/27 10:00:12;;;;;;;5.10;4.40;;;14.70;87.60;;;15.40;52.97;99334.28;4952009;28;123442;-91
2022/04/27 10:02:43;;;;;;;5.33;3.97;;;14.80;87.00;;;15.44;52.78;99340.81;4954786;28;124228;-92
2022/04/27 10:05:29;;;;;;;4.20;3.77;;;14.80;86.80;;;15.48;52.73;99341.00;4955850;28;115001;-85
2022/04/27 10:07:56;;;;;;;4.60;4.07;;;14.90;86.80;;;15.56;52.66;99339.34;4955685;28;114912;-94
2022/04/27 10:10:44;;;;;;;4.40;3.70;;;14.90;86.40;;;15.59;52.49;99335.88;4948349;28;124113;-92
2022/04/27 10:13:32;;;;;;;5.57;4.70;;;15.00;86.10;;;15.64;51.46;99335.69;4937189;28;124572;-93
2022/04/27 10:16:37;;;;;;;4.70;4.20;;;15.00;84.70;;;15.60;51.40;99334.72;4945137;28;115956;-92
2022/04/27 10:19:23;;;;;;;5.10;4.30;;;15.00;84.40;;;15.61;51.37;99341.94;4950987;28;114702;-94
2022/04/27 10:22:28;;;;;;;5.00;4.50;;;15.10;84.50;;;15.61;50.80;99347.50;4926588;28;123632;-92
2022/04/27 10:25:15;;;;;;;5.70;4.47;;;15.10;84.00;;;15.64;50.94;99353.22;4928504;28;123642;-92
2022/04/27 10:28:10;;;;;;;4.10;3.57;;;15.10;83.90;;;15.71;50.40;99341.59;4920908;28;113607;-94
2022/04/27 10:31:36;;;;;;;3.43;3.13;;;15.10;83.30;;;15.76;50.41;99337.81;4923824;28;114579;-94
2022/04/27 10:34:18;;;;;;;2.90;2.60;;;15.20;83.00;;;15.82;50.47;99342.84;4878802;28;123370;-91
2022/04/27 10:36:53;;;;;;;3.13;2.73;;;15.20;82.90;;;15.85;50.17;99333.84;4889399;28;123363;-91
2022/04/27 10:39:31;;;;;;;3.30;2.93;;;15.30;82.70;;;15.89;49.70;99336.78;4868088;28;113485;-93
2022/04/27 10:42:02;;;;;;;3.40;3.10;;;15.30;82.00;;;15.89;49.48;99336.78;4881645;28;113598;-92
2022/04/27 10:44:53;;;;;;;4.10;2.83;;;15.40;81.90;;;15.93;48.91;99334.94;4876452;28;123205;-93
2022/04/27 10:47:22;;;;;;;4.37;3.57;;;15.40;80.90;;;15.88;48.69;99347.09;4868992;28;121968;-92
2022/04/27 10:50:11;;;;;;;3.40;3.10;;;15.30;80.40;;;15.89;48.77;99353.50;4868816;28;112679;-91
2022/04/27 10:52:51;;;;;;;4.00;2.80;;;15.30;80.40;;;15.94;49.05;99341.34;4870703;28;111126;-91
2022/04/27 10:55:56;;;;;;;3.00;2.20;;;15.40;81.00;;;16.01;49.11;99345.25;4872495;28;122531;-91
2022/04/27 10:58:44;;;;;;;2.70;2.50;;;15.50;81.10;;;16.08;48.97;99347.50;4876527;28;122089;-92
2022/04/27 11:02:06;;;;;;;2.60;2.27;;;15.50;80.60;;;16.08;48.70;99350.28;4864512;28;113674;-92
2022/04/27 11:04:36;;;;;;;5.93;2.97;;;15.60;80.40;;;16.12;48.16;99351.25;4856996;28;112522;-92
2022/04/27 11:07:56;;;;;;;4.00;3.37;;;15.60;79.70;;;16.11;48.36;99342.06;4883045;28;123094;-93
2022/04/27 11:10:24;;;;;;;2.83;2.53;;;15.60;79.80;;;16.18;48.79;99344.34;4904606;28;122217;-91
2022/04/27 11:12:58;;;;;;;2.60;2.40;;;15.60;80.00;;;16.25;48.29;99350.19;4904042;28;114041;-92
2022/04/27 11:16:16;;;;;;;3.20;2.90;;;15.70;79.90;;;16.28;48.30;99352.31;4834236;29;113694;-93
2022/04/27 11:19:24;;;;;;;3.40;3.10;;;15.80;79.80;;;16.31;48.12;99357.22;4845247;29;122515;-93
2022/04/27 11:22:14;;;;;;;3.40;3.10;;;15.80;79.20;;;16.34;47.94;99356.53;4822186;29;124116;-92
2022/04/27 11:28:35;;;;;;;3.33;3.03;;;15.90;79.40;;;16.51;47.93;99347.25;4849563;29;113451;-93
2022/04/27 11:31:07;;;;;;;4.53;3.77;;;15.90;79.10;;;16.60;47.50;99338.81;4826935;29;123615;-92
2022/04/27 11:33:59;;;;;;;4.17;3.77;;;16.00;78.80;;;16.69;47.04;99342.34;4852440;29;122633;-92
2022/04/27 11:37:23;;;;;;;3.53;3.23;;;15.70;77.80;;;16.80;46.79;99344.78;4884897;28;113720;-94
2022/04/27 11:40:48;;;;;;;4.30;3.30;;;16.20;78.20;;;16.90;47.03;99330.38;4862155;28;113452;-92
2022/04/27 11:43:32;;;;;;;3.93;3.57;;;16.30;78.40;;;17.01;46.97;99331.63;4878549;28;122838;-92
2022/04/27 11:46:09;;;;;;;3.87;3.27;;;16.40;78.10;;;17.12;47.09;99321.66;4890449;28;123135;-93
2022/04/27 11:48:51;;;;;;;4.57;3.67;;;16.50;78.20;;;17.26;45.98;99334.50;4937040;28;114364;-91
2022/04/27 11:51:20;;;;;;;4.30;3.47;;;16.60;77.20;;;17.27;45.70;99328.56;4920417;28;113702;-91
2022/04/27 11:53:49;;;;;;;8.90;4.67;;;16.70;76.50;;;17.25;44.76;99325.31;4892921;28;122289;-92
2022/04/27 11:56:19;;;;;;;4.40;3.77;;;16.70;75.00;;;17.23;44.73;99328.44;4931507;28;122491;-94
2022/04/27 11:59:44;;;;;;;5.40;4.43;;;16.70;75.00;;;17.17;44.90;99327.03;4928203;28;112972;-93
2022/04/27 12:02:22;;;;;;;3.57;3.27;;;16.70;74.60;;;17.22;45.16;99320.41;4912164;28;113437;-90
2022/04/27 12:04:51;;;;;;;5.17;3.40;;;16.70;75.20;;;17.29;44.62;99331.84;4918071;28;122514;-91
2022/04/27 12:07:21;;;;;;;4.80;4.07;;;16.70;74.50;;;17.37;44.36;99332.91;4907214;28;123674;-93
2022/04/27 12:10:23;;;;;;;3.53;3.23;;;16.80;74.10;;;17.45;44.39;99334.78;4929862;28;114365;-93
2022/04/27 12:13:00;;;;;;;4.33;3.50;;;16.90;74.20;;;17.54;43.93;99331.91;4927580;28;114589;-93
2022/04/27 12:15:33;;;;;;;4.63;3.80;;;17.00;73.40;;;17.55;43.89;99328.75;4931643;28;123533;-93
2022/04/27 12:18:03;;;;;;;3.77;3.40;;;17.00;73.20;;;17.59;43.79;99321.31;4913939;28;123314;-92
2022/04/27 12:20:48;;;;;;;3.93;3.20;;;17.10;73.40;;;17.64;43.66;99323.88;4928700;28;113532;-93
2022/04/27 12:23:56;;;;;;;3.27;2.97;;;17.10;73.20;;;17.64;43.78;99326.66;4913239;28;113294;-95
2022/04/27 12:26:31;;;;;;;3.83;3.50;;;17.20;73.90;;;17.66;43.95;99327.16;4876329;28;122207;-93
2022/04/27 12:29:23;;;;;;;2.50;2.30;;;17.20;73.10;;;17.73;43.96;99329.38;4877959;28;122769;-94
2022/04/27 12:32:44;;;;;;;2.60;2.40;;;17.20;73.30;;;17.83;44.36;99317.75;4892490;28;114601;-93
2022/04/27 12:38:29;;;;;;;4.33;3.33;;;17.40;72.50;;;17.83;43.19;99319.75;4867544;29;123847;-93
2022/04/27 12:41:09;;;;;;;3.80;3.50;;;17.30;71.90;;;17.83;43.52;99322.53;4852725;29;123344;-94
2022/04/27 12:44:09;;;;;;;4.63;3.13;;;17.30;72.50;;;17.88;43.79;99317.53;4878064;28;114390;-93
2022/04/27 12:47:19;;;;;;;2.90;2.30;;;17.40;72.90;;;17.96;43.90;99320.56;4865987;28;113222;-92
2022/04/27 12:50:19;;;;;;;2.60;2.40;;;17.50;73.20;;;18.06;43.97;99320.91;4871353;29;123896;-91
2022/04/27 12:53:19;;;;;;;3.40;2.90;;;17.50;73.30;;;18.14;44.00;99310.78;4853358;29;122818;-95
2022/04/27 12:59:28;;;;;;;2.50;2.10;;;17.70;73.20;;;18.17;43.70;99314.88;4912866;28;114969;-92
2022/04/27 13:02:00;;;;;;;2.83;2.30;;;17.70;72.80;;;18.16;43.72;99316.00;4904204;28;122733;-91
2022/04/27 13:04:48;;;;;;;2.40;2.20;;;17.70;72.70;;;18.16;43.79;99307.63;4874142;28;123846;-91
2022/04/27 13:07:14;;;;;;;2.40;2.20;;;17.70;72.70;;;18.18;43.93;99317.28;4856705;28;113461;-89
2022/04/27 13:12:35;;;;;;;2.23;2.00;;;17.70;72.80;;;18.22;43.89;99317.44;4891676;28;125619;-92
2022/04/27 13:15:04;;;;;;;2.67;2.47;;;17.70;72.70;;;18.21;43.83;99315.78;4878948;28;123690;-92
2022/04/27 13:17:31;;;;;;;2.87;1.93;;;17.70;72.70;;;18.21;43.88;99316.59;4881559;28;114072;-93
2022/04/27 13:20:16;;;;;;;2.50;2.30;;;17.70;72.60;;;18.20;43.67;99312.19;4891864;28;113417;-91
2022/04/27 13:23:03;;;;;;;2.67;2.47;;;17.70;72.40;;;18.09;42.81;99300.66;4887689;28;124758;-92
2022/04/27 13:25:30;;;;;;;3.37;2.97;;;16.70;70.30;;;17.97;43.37;99306.22;4871626;28;123669;-92
2022/04/27 13:27:58;;;;;;;3.30;3.00;;;17.50;71.40;;;17.93;43.40;99299.72;4887258;28;113495;-91
2022/04/27 13:30:24;;;;;;;2.53;2.20;;;17.50;71.70;;;17.93;43.48;99307.28;4891264;28;113644;-90
2022/04/27 13:32:51;;;;;;;3.00;2.10;;;17.50;71.80;;;17.93;43.63;99296.91;4885819;28;124488;-91
2022/04/27 13:35:18;;;;;;;2.63;2.20;;;17.50;71.80;;;17.95;43.75;99302.19;4875249;28;123284;-92
2022/04/27 13:37:45;;;;;;;2.13;1.93;;;17.50;71.80;;;17.96;43.41;99299.00;4925127;28;114331;-93
2022/04/27 13:40:12;;;;;;;2.70;2.50;;;17.50;71.80;;;17.97;43.38;99303.44;4931061;28;114017;-92
2022/04/27 13:42:57;;;;;;;3.20;2.97;;;17.50;71.70;;;17.94;43.30;99300.53;4927376;28;124297;-91
2022/04/27 13:45:26;;;;;;;2.93;2.37;;;17.50;71.30;;;17.91;43.40;99302.03;4933649;28;123144;-91
2022/04/27 13:47:52;;;;;;;3.10;2.80;;;17.40;71.40;;;17.93;43.44;99299.72;4931819;28;114283;-92
2022/04/27 13:50:19;;;;;;;3.67;2.93;;;17.40;71.50;;;17.95;43.42;99299.38;4931031;28;113165;-92
2022/04/27 13:52:46;;;;;;;5.47;3.60;;;17.40;71.60;;;17.97;43.19;99299.81;4913400;28;122984;-92
2022/04/27 13:55:15;;;;;;;3.70;3.00;;;17.40;71.10;;;17.95;43.06;99305.78;4929020;28;123796;-94
2022/04/27 13:57:43;;;;;;;3.23;2.93;;;17.40;71.10;;;17.93;43.18;99305.31;4934603;28;115223;-91
2022/04/27 14:00:10;;;;;;;3.53;3.17;;;17.40;71.10;;;17.95;43.35;99302.19;4917585;28;114972;-92
2022/04/27 14:02:38;;;;;;;3.17;2.80;;;17.40;71.30;;;17.96;43.14;99303.78;4928425;28;121806;-92
2022/04/27 14:05:08;;;;;;;3.20;2.53;;;17.40;71.20;;;17.93;43.30;99305.31;4931472;28;123078;-92
2022/04/27 14:07:36;;;;;;;3.90;3.40;;;17.40;71.30;;;17.95;43.05;99308.59;4929385;28;114861;-93
2022/04/27 14:10:07;;;;;;;3.50;3.00;;;17.40;71.00;;;17.90;43.17;99300.41;4935536;28;113930;-92
2022/04/27 14:15:41;;;;;;;4.23;3.83;;;17.40;70.60;;;17.77;42.97;99299.56;4935932;28;125258;-91
2022/04/27 14:18:09;;;;;;;5.53;3.80;;;17.30;70.30;;;17.75;43.00;99301.88;4933558;28;113326;-91
2022/04/27 14:20:45;;;;;;;4.07;3.30;;;17.30;70.60;;;17.76;43.01;99297.09;4934902;28;113567;-92
2022/04/27 14:23:18;;;;;;;4.03;3.20;;;17.30;70.60;;;17.75;43.17;99298.28;4915738;28;123251;-92
2022/04/27 14:25:47;;;;;;;3.33;3.03;;;17.30;70.60;;;17.77;43.20;99293.97;4937737;28;122453;-91
2022/04/27 14:28:14;;;;;;;3.27;2.97;;;17.30;70.60;;;17.81;42.89;99299.69;4925730;28;113717;-93
2022/04/27 14:30:42;;;;;;;3.93;3.63;;;17.30;70.50;;;17.82;42.86;99296.56;4929284;28;113149;-92
2022/04/27 14:33:10;;;;;;;3.40;3.10;;;17.30;70.50;;;17.86;43.12;99297.50;4930188;28;124054;-91
2022/04/27 14:35:39;;;;;;;4.03;3.10;;;17.30;70.60;;;17.89;42.89;99298.78;4943829;28;123888;-93
2022/04/27 14:38:45;;;;;;;4.97;3.27;;;17.40;70.70;;;17.93;42.70;99299.72;4939949;28;114442;-93
2022/04/27 14:41:31;;;;;;;5.00;3.47;;;17.40;70.30;;;18.00;42.73;99291.56;4932889;28;112947;-91
2022/04/27 14:43:59;;;;;;;3.23;2.90;;;17.50;70.40;;;18.10;42.73;99298.66;4933774;28;123475;-91
2022/04/27 14:46:26;;;;;;;4.43;4.03;;;17.50;70.40;;;18.17;42.43;99295.28;4931502;28;123070;-91
2022/04/27 14:48:53;;;;;;;4.03;3.70;;;17.60;69.90;;;18.23;42.61;99294.69;4933531;28;115013;-92
2022/04/27 14:51:20;;;;;;;3.30;3.00;;;17.60;70.90;;;18.41;42.50;99294.44;4933735;28;114067;-92
2022/04/27 14:53:48;;;;;;;3.97;3.00;;;17.70;70.30;;;18.60;42.09;99283.44;4933582;28;124074;-93
2022/04/27 14:56:14;;;;;;;3.17;2.87;;;17.90;70.00;;;18.80;41.79;99290.03;4933773;28;123268;-92
2022/04/27 14:58:41;;;;;;;3.07;2.73;;;18.10;69.60;;;18.98;41.39;99282.97;4935263;28;113567;-91
2022/04/27 15:01:11;;;;;;;3.83;3.20;;;18.20;69.30;;;19.20;40.96;99277.94;4933663;28;114219;-91
2022/04/27 15:03:37;;;;;;;3.00;2.80;;;18.40;69.10;;;19.42;40.73;99284.94;4931099;28;124679;-92
2022/04/27 15:06:04;;;;;;;3.00;2.70;;;18.60;69.00;;;19.65;40.82;99277.53;4930816;28;123728;-90
2022/04/27 15:08:32;;;;;;;2.50;2.30;;;17.60;67.90;;;19.94;40.29;99266.25;4916464;28;113102;-93
2022/04/27 15:10:58;;;;;;;2.50;2.30;;;19.10;68.90;;;20.21;39.88;99279.34;4932826;28;113998;-91
2022/04/27 15:13:25;;;;;;;3.80;3.47;;;19.30;68.40;;;20.43;39.33;99274.22;4931586;28;124437;-90
2022/04/27 15:15:51;;;;;;;3.17;2.87;;;19.50;67.30;;;20.60;39.17;99271.00;4930505;28;122792;-91
2022/04/27 15:18:18;;;;;;;2.83;2.63;;;19.70;67.50;;;20.81;39.41;99269.84;4929354;28;113598;-91
2022/04/27 15:23:30;;;;;;;3.40;2.57;;;20.10;66.90;;;21.32;38.29;99255.56;4932637;28;123624;-92
2022/04/27 15:25:56;;;;;;;3.37;3.07;;;20.40;66.80;;;21.51;37.81;99255.53;4931631;28;123005;-91
2022/04/27 15:28:23;;;;;;;3.90;3.40;;;20.60;65.60;;;21.56;37.14;99255.22;4930929;28;114471;-91
2022/04/27 15:30:50;;;;;;;4.57;3.57;;;20.80;64.50;;;21.62;37.43;99245.28;4934272;28;114065;-90
2022/04/27 15:33:16;;;;;;;3.40;3.10;;;20.90;64.20;;;21.72;36.65;99257.09;4931065;28;124000;-92
2022/04/27 15:35:43;;;;;;;3.90;3.00;;;21.00;63.30;;;21.79;36.42;99254.41;4931454;28;123074;-91
2022/04/27 15:38:09;;;;;;;3.67;3.00;;;21.10;62.40;;;21.91;36.13;99257.00;4930443;28;115276;-90
2022/04/27 15:40:39;;;;;;;2.53;2.33;;;21.20;62.00;;;22.06;35.93;99261.69;4928071;28;115410;-91
2022/04/27 15:43:06;;;;;;;4.30;2.47;;;21.30;61.60;;;22.19;35.49;99248.25;4930115;28;124067;-90
2022/04/27 15:45:33;;;;;;;2.60;2.40;;;21.50;61.30;;;22.33;35.13;99247.63;4931406;28;124117;-91
2022/04/27 15:48:00;;;;;;;2.90;2.50;;;21.60;60.30;;;22.49;35.29;99242.63;4929537;28;114209;-92
2022/04/27 15:50:34;;;;;;;3.33;3.00;;;21.70;60.50;;;22.64;34.23;99245.63;4931328;28;113177;-91
2022/04/27 15:53:05;;;;;;;3.40;3.10;;;21.90;58.90;;;22.64;33.46;99242.81;4933186;28;124263;-92
2022/04/27 15:55:32;;;;;;;5.60;3.73;;;21.90;57.60;;;22.64;32.62;99240.00;4932968;28;123016;-93
2022/04/27 15:58:02;;;;;;;3.13;2.83;;;22.00;56.10;;;22.63;32.80;99238.38;4930859;28;113642;-92
2022/04/27 16:00:29;;;;;;;2.93;2.60;;;22.00;56.10;;;22.71;33.12;99245.72;4930017;28;112908;-92
2022/04/27 16:02:57;;;;;;;3.20;2.70;;;22.10;56.70;;;22.82;33.17;99246.66;4929071;28;124129;-90
2022/04/27 16:05:24;;;;;;;3.13;2.80;;;22.20;56.40;;;22.92;33.33;99245.97;4928610;28;123706;-92
2022/04/27 16:07:52;;;;;;;2.63;2.43;;;22.20;56.50;;;23.09;33.31;99247.41;4930922;28;114239;-92
2022/04/27 16:10:22;;;;;;;2.23;2.03;;;22.40;56.70;;;23.28;33.36;99237.94;4927928;28;114181;-93
2022/04/27 16:12:48;;;;;;;2.57;2.37;;;22.50;56.60;;;23.38;32.73;99240.06;4926674;28;123736;-94
2022/04/27 16:15:15;;;;;;;2.80;2.60;;;22.60;55.60;;;23.43;32.71;99246.53;4924075;28;124922;-93
2022/04/27 16:17:41;;;;;;;2.63;2.40;;;22.70;55.50;;;23.45;32.48;99250.56;4918792;28;113547;-92
2022/04/27 16:20:09;;;;;;;2.67;2.47;;;22.80;54.80;;;23.52;32.74;99244.22;4912715;28;114469;-91
2022/04/27 16:25:20;;;;;;;2.70;2.50;;;22.90;54.50;;;23.63;32.30;99241.47;4922887;28;124796;-92
2022/04/27 16:27:47;;;;;;;2.30;2.07;;;23.00;54.30;;;23.69;32.46;99237.91;4921898;28;116065;-92
2022/04/27 16:30:14;;;;;;;2.53;2.33;;;23.10;54.40;;;23.80;32.38;99232.38;4925404;28;114803;-93
2022/04/27 16:32:42;;;;;;;2.27;2.00;;;23.20;54.20;;;23.84;32.13;99238.06;4920648;28;124567;-92
2022/04/27 16:35:10;;;;;;;3.13;2.83;;;23.20;54.40;;;23.79;31.13;99237.22;4930714;28;122740;-91
2022/04/27 16:37:37;;;;;;;3.30;3.07;;;23.20;52.00;;;23.76;31.98;99238.00;4928617;28;114610;-93
2022/04/27 16:40:05;;;;;;;2.60;2.40;;;23.20;52.80;;;23.86;31.98;99235.63;4928860;28;114512;-92
2022/04/27 16:42:32;;;;;;;2.70;2.50;;;23.20;53.00;;;23.97;31.98;99239.38;4931419;28;123964;-92
2022/04/27 16:44:58;;;;;;;2.70;2.50;;;23.30;53.20;;;24.05;32.08;99246.69;4929591;28;123715;-92
2022/04/27 16:47:25;;;;;;;2.53;2.33;;;23.40;53.10;;;24.10;32.01;99240.69;4929307;28;114637;-91
2022/04/27 16:49:51;;;;;;;2.00;1.90;;;23.40;53.10;;;24.15;31.90;99242.31;4930067;28;114160;-90
2022/04/27 16:52:18;;;;;;;2.53;2.33;;;23.50;52.90;;;24.19;31.81;99238.31;4929779;28;124559;-92
2022/04/27 16:54:46;;;;;;;2.70;2.50;;;23.60;52.60;;;24.21;31.65;99249.22;4925903;28;123840;-91
2022/04/27 16:57:12;;;;;;;2.23;2.03;;;23.60;52.50;;;24.24;31.78;99254.06;4927871;28;114278;-91
2022/04/27 16:59:39;;;;;;;2.13;1.93;;;23.60;52.40;;;24.24;31.80;99252.06;4931629;28;114315;-91
2022/04/27 17:02:08;;;;;;;2.20;2.00;;;23.70;52.20;;;24.23;31.58;99250.44;4928887;28;124569;-91
2022/04/27 17:04:35;;;;;;;2.30;2.10;;;23.70;52.00;;;24.24;31.97;99254.06;4926705;28;122941;-91
2022/04/27 17:07:02;;;;;;;2.47;2.07;;;23.70;52.10;;;24.25;31.89;99259.31;4929444;28;113302;-91
2022/04/27 17:09:29;;;;;;;3.00;2.27;;;23.70;52.10;;;24.29;31.59;99259.34;4926693;28;113936;-92